Time;durP1;ratioP1;P1;durP2;ratioP2;P2;SDS_P1;SDS_P2;PMS_P1;PMS_P2;Temp;Humidity;BMP_temperature;BMP_pressure;BME280_temperature;BME280_humidity;BME280_pressure;Samples;Min_cycle;Max_cycle;Signal;HPM_P1;HPM_P2
2023/06/30 00:01:50;;;;;;;8.77;6.03;;;;;;;;;;5063489;28;20390;-37
2023/06/30 00:04:16;;;;;;;7.87;4.97;;;;;;;;;;5063501;28;20566;-37
2023/06/30 00:06:42;;;;;;;10.25;5.40;;;;;;;;;;5062364;28;20016;-38
2023/06/30 00:09:07;;;;;;;7.65;5.82;;;;;;;;;;5063795;28;20039;-37
2023/06/30 00:11:33;;;;;;;7.93;5.78;;;;;;;;;;5061662;28;20029;-37
2023/06/30 00:13:58;;;;;;;11.43;5.67;;;;;;;;;;5059805;28;20021;-37
2023/06/30 00:16:23;;;;;;;7.63;5.17;;;;;;;;;;5062853;28;20537;-37
2023/06/30 00:18:48;;;;;;;7.93;5.60;;;;;;;;;;5060669;28;20123;-37
2023/06/30 00:21:14;;;;;;;8.77;5.50;;;;;;;;;;5066247;28;20052;-37
2023/06/30 00:23:39;;;;;;;8.45;5.72;;;;;;;;;;5061678;28;20016;-37
2023/06/30 00:26:04;;;;;;;9.75;5.43;;;;;;;;;;5062295;28;20008;-37
2023/06/30 00:28:30;;;;;;;8.20;6.07;;;;;;;;;;5063253;28;20131;-37
2023/06/30 00:30:55;;;;;;;8.03;6.27;;;;;;;;;;5054630;28;20267;-37
2023/06/30 00:33:20;;;;;;;10.57;6.40;;;;;;;;;;5061440;28;20107;-37
2023/06/30 00:35:45;;;;;;;9.73;5.77;;;;;;;;;;5061130;28;20016;-38
2023/06/30 00:38:11;;;;;;;6.83;5.67;;;;;;;;;;5063489;28;20038;-37
2023/06/30 00:40:36;;;;;;;9.77;5.43;;;;;;;;;;5063406;28;20298;-38
2023/06/30 00:43:01;;;;;;;9.57;5.67;;;;;;;;;;5060775;28;20342;-38
2023/06/30 00:45:27;;;;;;;6.50;5.63;;;;;;;;;;5063945;28;20017;-38
2023/06/30 00:47:52;;;;;;;7.18;5.03;;;;;;;;;;5072416;28;20419;-38
2023/06/30 00:50:18;;;;;;;8.18;5.53;;;;;;;;;;5064318;28;20020;-37
2023/06/30 00:52:44;;;;;;;8.65;5.45;;;;;;;;;;5058211;28;20025;-38
2023/06/30 00:55:11;;;;;;;7.13;6.00;;;;;;;;;;5063351;28;20058;-38
2023/06/30 00:57:36;;;;;;;9.07;5.60;;;;;;;;;;5062107;28;20025;-38
2023/06/30 01:00:05;;;;;;;4.82;3.45;;;;;;;;;;5062422;28;20033;-38
2023/06/30 01:02:32;;;;;;;9.45;6.13;;;;;;;;;;5060715;28;20036;-38
2023/06/30 01:05:08;;;;;;;9.32;6.40;;;;;;;;;;5073921;28;20024;-38
2023/06/30 01:07:39;;;;;;;7.70;5.80;;;;;;;;;;5058282;28;20050;-37
2023/06/30 01:10:05;;;;;;;6.82;5.10;;;;;;;;;;5059681;28;20089;-38
2023/06/30 01:12:31;;;;;;;8.30;6.03;;;;;;;;;;5058139;28;20029;-38
2023/06/30 01:14:57;;;;;;;8.93;6.28;;;;;;;;;;5056698;28;20052;-37
2023/06/30 01:17:24;;;;;;;7.95;6.85;;;;;;;;;;5056981;28;20060;-38
2023/06/30 01:19:50;;;;;;;8.48;5.95;;;;;;;;;;5057099;28;20024;-38
2023/06/30 01:22:24;;;;;;;9.18;6.53;;;;;;;;;;5058928;28;20717;-38
2023/06/30 01:24:51;;;;;;;9.73;6.85;;;;;;;;;;5057832;28;20031;-38
2023/06/30 01:27:16;;;;;;;8.70;6.10;;;;;;;;;;5057505;28;20413;-38
2023/06/30 01:29:42;;;;;;;9.03;5.90;;;;;;;;;;5060498;28;20024;-38
2023/06/30 01:32:08;;;;;;;10.70;6.25;;;;;;;;;;5060635;28;20277;-38
2023/06/30 01:34:33;;;;;;;11.38;6.80;;;;;;;;;;5060566;28;20032;-38
2023/06/30 01:36:58;;;;;;;7.75;5.60;;;;;;;;;;5058825;28;20024;-38
2023/06/30 01:39:24;;;;;;;8.73;5.70;;;;;;;;;;5061013;28;20051;-38
2023/06/30 01:41:49;;;;;;;7.13;5.33;;;;;;;;;;5059454;28;20047;-38
2023/06/30 01:44:14;;;;;;;8.03;5.50;;;;;;;;;;5058121;28;20090;-38
2023/06/30 01:46:39;;;;;;;9.60;6.60;;;;;;;;;;5058457;28;20275;-38
2023/06/30 01:49:05;;;;;;;7.22;5.78;;;;;;;;;;5059437;28;20648;-38
2023/06/30 01:51:30;;;;;;;9.07;5.80;;;;;;;;;;5059725;28;20123;-38
2023/06/30 01:53:55;;;;;;;7.57;6.13;;;;;;;;;;5062203;28;20056;-38
2023/06/30 01:56:21;;;;;;;8.20;6.43;;;;;;;;;;5058202;28;20028;-38
2023/06/30 01:58:46;;;;;;;10.47;5.73;;;;;;;;;;5060219;28;20394;-38
2023/06/30 02:01:11;;;;;;;8.20;6.77;;;;;;;;;;5057717;28;20120;-38
2023/06/30 02:03:37;;;;;;;8.48;6.25;;;;;;;;;;5043988;28;20048;-38
2023/06/30 02:06:03;;;;;;;10.97;6.83;;;;;;;;;;5059487;28;20074;-38
2023/06/30 02:08:28;;;;;;;8.70;6.35;;;;;;;;;;5059584;28;20355;-38
2023/06/30 02:10:53;;;;;;;10.70;6.87;;;;;;;;;;5061685;28;20111;-38
2023/06/30 02:13:18;;;;;;;9.57;6.90;;;;;;;;;;5064432;28;20020;-38
2023/06/30 02:15:44;;;;;;;4.30;3.63;;;;;;;;;;5047022;28;20307;-38
2023/06/30 02:18:09;;;;;;;11.23;7.27;;;;;;;;;;5064796;28;20267;-38
2023/06/30 02:20:34;;;;;;;10.98;6.82;;;;;;;;;;5067281;28;20798;-38
2023/06/30 02:23:00;;;;;;;9.80;6.50;;;;;;;;;;5071066;28;20025;-38
2023/06/30 02:25:25;;;;;;;11.80;6.93;;;;;;;;;;5065596;28;20029;-38
2023/06/30 02:27:52;;;;;;;8.27;6.15;;;;;;;;;;5065333;28;20251;-38
2023/06/30 02:30:17;;;;;;;12.10;5.80;;;;;;;;;;5057907;28;20096;-38
2023/06/30 02:32:43;;;;;;;9.30;7.13;;;;;;;;;;5063027;28;20128;-38
2023/06/30 02:35:09;;;;;;;12.23;7.05;;;;;;;;;;5064589;28;20115;-38
2023/06/30 02:37:34;;;;;;;10.52;8.00;;;;;;;;;;5061520;28;20112;-37
2023/06/30 02:40:00;;;;;;;14.13;8.05;;;;;;;;;;5065898;28;20152;-38
2023/06/30 02:42:25;;;;;;;19.63;9.73;;;;;;;;;;5062879;28;20059;-38
2023/06/30 02:44:50;;;;;;;16.63;8.83;;;;;;;;;;5051395;28;20274;-38
2023/06/30 02:47:16;;;;;;;15.50;9.63;;;;;;;;;;5062099;28;20765;-38
2023/06/30 02:49:41;;;;;;;21.13;9.48;;;;;;;;;;5064524;28;20309;-38
2023/06/30 02:52:07;;;;;;;14.90;9.40;;;;;;;;;;5064763;28;20028;-38
2023/06/30 02:54:32;;;;;;;13.45;9.35;;;;;;;;;;5059253;28;20303;-38
2023/06/30 02:56:58;;;;;;;15.90;10.95;;;;;;;;;;5061134;28;20842;-37
2023/06/30 02:59:23;;;;;;;20.67;10.57;;;;;;;;;;5055215;28;20119;-36
2023/06/30 03:01:48;;;;;;;16.67;10.68;;;;;;;;;;5061082;28;20271;-37
2023/06/30 03:04:14;;;;;;;20.87;11.00;;;;;;;;;;5062537;28;20032;-38
2023/06/30 03:06:39;;;;;;;18.67;11.18;;;;;;;;;;5062659;28;20063;-40
2023/06/30 03:09:04;;;;;;;19.63;10.93;;;;;;;;;;5061651;28;20024;-36
2023/06/30 03:11:29;;;;;;;20.02;11.07;;;;;;;;;;5048903;28;20366;-36
2023/06/30 03:13:55;;;;;;;17.63;10.87;;;;;;;;;;5062186;28;20475;-37
2023/06/30 03:16:20;;;;;;;17.25;11.40;;;;;;;;;;5061669;28;20274;-36
2023/06/30 03:18:45;;;;;;;20.20;11.73;;;;;;;;;;5058617;28;20031;-37
2023/06/30 03:21:11;;;;;;;21.02;12.27;;;;;;;;;;5064804;28;20074;-37
2023/06/30 03:23:36;;;;;;;20.13;12.60;;;;;;;;;;5061399;28;20021;-39
2023/06/30 03:26:01;;;;;;;18.03;10.13;;;;;;;;;;5063552;28;20025;-35
2023/06/30 03:28:27;;;;;;;21.35;12.55;;;;;;;;;;5062554;28;20267;-38
2023/06/30 03:30:52;;;;;;;18.13;11.70;;;;;;;;;;5063443;28;20040;-34
2023/06/30 03:33:18;;;;;;;19.13;12.88;;;;;;;;;;5065972;28;20271;-34
2023/06/30 03:35:43;;;;;;;19.42;12.43;;;;;;;;;;5076870;28;20402;-37
2023/06/30 03:38:08;;;;;;;20.55;12.23;;;;;;;;;;5060902;28;20467;-33
2023/06/30 03:40:34;;;;;;;22.33;13.50;;;;;;;;;;5060021;28;20616;-34
2023/06/30 03:42:59;;;;;;;24.08;12.13;;;;;;;;;;5059068;28;20394;-38
2023/06/30 03:45:24;;;;;;;22.00;12.57;;;;;;;;;;5063138;28;20184;-35
2023/06/30 03:47:50;;;;;;;20.87;12.53;;;;;;;;;;5063773;28;20350;-35
2023/06/30 03:50:15;;;;;;;22.65;12.63;;;;;;;;;;5063194;28;20637;-36
2023/06/30 03:52:40;;;;;;;20.17;12.13;;;;;;;;;;5064919;28;20505;-35
2023/06/30 03:55:06;;;;;;;23.50;12.73;;;;;;;;;;5067086;28;20031;-38
2023/06/30 03:57:31;;;;;;;17.85;11.95;;;;;;;;;;5069113;28;20359;-39
2023/06/30 03:59:57;;;;;;;22.07;12.93;;;;;;;;;;5062759;28;20064;-38
2023/06/30 04:02:22;;;;;;;18.23;12.18;;;;;;;;;;5071182;28;20278;-35
2023/06/30 04:04:48;;;;;;;19.27;12.57;;;;;;;;;;5062495;28;20028;-37
2023/06/30 04:07:13;;;;;;;15.47;7.97;;;;;;;;;;5064991;28;20725;-35
2023/06/30 04:09:38;;;;;;;22.67;13.17;;;;;;;;;;5059655;28;20283;-39
2023/06/30 04:12:04;;;;;;;24.17;13.80;;;;;;;;;;5048793;28;20279;-34
2023/06/30 04:14:29;;;;;;;19.60;12.45;;;;;;;;;;5058466;28;20270;-35
2023/06/30 04:16:54;;;;;;;25.57;13.57;;;;;;;;;;5056611;28;20029;-38
2023/06/30 04:19:20;;;;;;;24.87;13.63;;;;;;;;;;5054682;28;20020;-35
2023/06/30 04:21:47;;;;;;;21.35;13.25;;;;;;;;;;5056276;28;20270;-36
2023/06/30 04:24:12;;;;;;;24.92;12.35;;;;;;;;;;5060590;28;20016;-38
2023/06/30 04:26:38;;;;;;;23.63;13.70;;;;;;;;;;5059432;28;20425;-37
2023/06/30 04:29:03;;;;;;;19.67;13.53;;;;;;;;;;5060599;28;20278;-37
2023/06/30 04:31:28;;;;;;;15.18;8.85;;;;;;;;;;5062984;28;20413;-36
2023/06/30 04:33:53;;;;;;;23.93;13.47;;;;;;;;;;5058781;28;20017;-36
2023/06/30 04:36:20;;;;;;;24.77;13.57;;;;;;;;;;5057697;28;20263;-37
2023/06/30 04:38:47;;;;;;;22.25;13.27;;;;;;;;;;5059117;28;20662;-38
2023/06/30 04:41:12;;;;;;;21.27;12.85;;;;;;;;;;5061704;28;20020;-35
2023/06/30 04:43:37;;;;;;;22.40;13.60;;;;;;;;;;5040938;28;20020;-36
2023/06/30 04:46:03;;;;;;;23.77;13.87;;;;;;;;;;5044512;28;20317;-35
2023/06/30 04:48:28;;;;;;;24.77;13.47;;;;;;;;;;5061893;28;20055;-36
2023/06/30 04:50:53;;;;;;;21.60;13.18;;;;;;;;;;5059880;28;20316;-36
2023/06/30 04:53:19;;;;;;;24.63;13.90;;;;;;;;;;5059450;28;20025;-36
2023/06/30 04:55:44;;;;;;;22.45;12.88;;;;;;;;;;5058132;28;20294;-37
2023/06/30 04:58:09;;;;;;;19.53;12.67;;;;;;;;;;5059062;28;20078;-36
2023/06/30 05:00:34;;;;;;;23.75;12.68;;;;;;;;;;5055219;28;20064;-36
2023/06/30 05:03:02;;;;;;;20.63;13.60;;;;;;;;;;5056568;28;20411;-36
2023/06/30 05:05:27;;;;;;;20.40;11.77;;;;;;;;;;5055388;28;20032;-36
2023/06/30 05:07:52;;;;;;;21.73;12.88;;;;;;;;;;5050095;28;20043;-36
2023/06/30 05:10:17;;;;;;;23.23;12.70;;;;;;;;;;5053061;28;20596;-36
2023/06/30 05:12:43;;;;;;;23.60;12.60;;;;;;;;;;5056495;28;20276;-36
2023/06/30 05:15:08;;;;;;;25.03;13.60;;;;;;;;;;5061261;28;20400;-35
2023/06/30 05:17:33;;;;;;;23.13;12.80;;;;;;;;;;5056478;28;20052;-35
2023/06/30 05:20:00;;;;;;;24.83;12.97;;;;;;;;;;5052750;28;20056;-35
2023/06/30 05:22:25;;;;;;;24.08;13.23;;;;;;;;;;5052177;28;20270;-37
2023/06/30 05:24:50;;;;;;;21.23;12.47;;;;;;;;;;5061521;28;20478;-36
2023/06/30 05:27:18;;;;;;;21.50;11.63;;;;;;;;;;5062615;28;20017;-36
2023/06/30 05:29:43;;;;;;;20.88;10.77;;;;;;;;;;5045741;28;20672;-37
2023/06/30 05:32:08;;;;;;;17.38;10.77;;;;;;;;;;5061647;28;20103;-36
2023/06/30 05:34:34;;;;;;;75.10;42.77;;;;;;;;;;5061277;28;20037;-38
2023/06/30 05:36:59;;;;;;;25.65;14.63;;;;;;;;;;5038266;28;20406;-37
2023/06/30 05:39:25;;;;;;;19.25;10.90;;;;;;;;;;5051620;28;20519;-38
2023/06/30 05:41:50;;;;;;;22.05;11.60;;;;;;;;;;5052770;28;20032;-37
2023/06/30 05:44:15;;;;;;;27.17;15.02;;;;;;;;;;5068455;28;21385;-36
2023/06/30 05:46:40;;;;;;;19.40;10.60;;;;;;;;;;5044812;28;20032;-38
2023/06/30 05:49:06;;;;;;;19.53;12.17;;;;;;;;;;5043845;28;20757;-35
2023/06/30 05:51:35;;;;;;;39.92;19.92;;;;;;;;;;5056490;28;20314;-36
2023/06/30 05:54:01;;;;;;;23.30;12.00;;;;;;;;;;5047526;28;20033;-38
2023/06/30 05:56:26;;;;;;;21.50;12.70;;;;;;;;;;5037499;28;20035;-36
2023/06/30 05:58:51;;;;;;;20.37;12.17;;;;;;;;;;5062176;28;20398;-35
2023/06/30 06:01:17;;;;;;;20.33;12.40;;;;;;;;;;5056316;28;20278;-37
2023/06/30 06:03:42;;;;;;;19.52;11.23;;;;;;;;;;5035821;28;20029;-36
2023/06/30 06:06:07;;;;;;;20.55;11.98;;;;;;;;;;5054952;28;20020;-36
2023/06/30 06:08:32;;;;;;;22.23;13.17;;;;;;;;;;5044064;28;20061;-36
2023/06/30 06:10:58;;;;;;;23.17;13.27;;;;;;;;;;5044003;28;20279;-38
2023/06/30 06:13:33;;;;;;;20.23;11.40;;;;;;;;;;5056530;28;20294;-37
2023/06/30 06:15:58;;;;;;;25.33;13.05;;;;;;;;;;5051821;28;20277;-36
2023/06/30 06:18:24;;;;;;;22.20;13.40;;;;;;;;;;5059390;28;20029;-36
2023/06/30 06:20:49;;;;;;;26.17;14.35;;;;;;;;;;5053623;28;20203;-36
2023/06/30 06:23:14;;;;;;;21.93;13.07;;;;;;;;;;5052564;28;20115;-35
2023/06/30 06:25:39;;;;;;;24.63;13.43;;;;;;;;;;5053078;28;20013;-37
2023/06/30 06:28:05;;;;;;;25.53;14.70;;;;;;;;;;5050414;28;20654;-35
2023/06/30 06:30:30;;;;;;;23.85;13.82;;;;;;;;;;5059576;28;20304;-36
2023/06/30 06:32:55;;;;;;;26.43;14.47;;;;;;;;;;5031779;28;20036;-36
2023/06/30 06:35:20;;;;;;;24.20;14.07;;;;;;;;;;5060750;28;20346;-36
2023/06/30 06:41:39;;;;;;;25.63;14.40;;;;;;;;;;4935881;28;1793377;-38
2023/06/30 06:44:09;;;;;;;25.05;14.48;;;;;;;;;;4979669;28;20049;-38
2023/06/30 06:46:37;;;;;;;27.40;14.85;;;;;;;;;;4987211;28;20030;-38
2023/06/30 06:49:05;;;;;;;22.80;13.77;;;;;;;;;;4958291;28;20045;-38
2023/06/30 06:51:33;;;;;;;27.08;14.25;;;;;;;;;;4949577;28;20125;-38
2023/06/30 06:54:01;;;;;;;28.17;14.55;;;;;;;;;;4966681;28;20026;-38
2023/06/30 06:56:26;;;;;;;21.25;12.07;;;;;;;;;;4960058;28;20026;-38
2023/06/30 06:58:54;;;;;;;20.45;11.77;;;;;;;;;;4957789;28;20452;-38
2023/06/30 07:01:19;;;;;;;19.73;10.32;;;;;;;;;;4958214;28;20034;-37
2023/06/30 07:03:45;;;;;;;22.63;11.27;;;;;;;;;;4957450;28;20026;-37
2023/06/30 07:06:12;;;;;;;17.88;9.95;;;;;;;;;;4950640;28;20034;-37
2023/06/30 07:08:41;;;;;;;18.73;10.98;;;;;;;;;;4964327;28;20382;-37
2023/06/30 07:11:08;;;;;;;19.02;10.98;;;;;;;;;;4965686;28;20018;-38
2023/06/30 07:13:34;;;;;;;21.40;11.43;;;;;;;;;;4956307;28;20692;-39
2023/06/30 07:15:59;;;;;;;19.63;9.80;;;;;;;;;;4975985;28;20068;-38
2023/06/30 07:18:25;;;;;;;20.60;10.85;;;;;;;;;;4978303;28;20077;-37
2023/06/30 07:20:51;;;;;;;19.58;11.27;;;;;;;;;;4967704;28;20165;-38
2023/06/30 07:23:17;;;;;;;23.05;11.32;;;;;;;;;;4982014;28;20492;-38
2023/06/30 07:25:48;;;;;;;20.65;11.70;;;;;;;;;;4971335;28;20022;-38
2023/06/30 07:28:13;;;;;;;22.33;13.73;;;;;;;;;;4981334;28;20023;-38
2023/06/30 07:30:39;;;;;;;20.52;10.23;;;;;;;;;;4979397;28;20037;-38
2023/06/30 07:33:10;;;;;;;22.02;10.70;;;;;;;;;;4985654;28;20030;-38
2023/06/30 07:35:35;;;;;;;19.20;10.73;;;;;;;;;;4975531;28;20053;-38
2023/06/30 07:38:01;;;;;;;19.53;10.23;;;;;;;;;;4976733;28;20392;-37
2023/06/30 07:40:26;;;;;;;19.43;11.40;;;;;;;;;;4979250;28;20302;-37
2023/06/30 07:42:54;;;;;;;26.88;11.82;;;;;;;;;;4976669;28;20292;-38
2023/06/30 07:45:19;;;;;;;20.25;10.07;;;;;;;;;;4978006;28;20042;-38
2023/06/30 07:47:48;;;;;;;19.03;10.90;;;;;;;;;;4979189;28;20081;-38
2023/06/30 07:50:14;;;;;;;22.40;11.20;;;;;;;;;;4975748;28;20266;-38
2023/06/30 07:52:39;;;;;;;20.55;10.57;;;;;;;;;;4953704;28;20033;-38
2023/06/30 07:55:05;;;;;;;19.10;10.70;;;;;;;;;;4953740;28;20035;-37
2023/06/30 07:57:30;;;;;;;18.30;11.07;;;;;;;;;;4968129;28;20078;-37
2023/06/30 07:59:56;;;;;;;21.45;11.43;;;;;;;;;;4932841;28;20377;-36
2023/06/30 08:02:23;;;;;;;19.50;11.07;;;;;;;;;;4961726;28;20042;-37
2023/06/30 08:04:49;;;;;;;20.23;10.85;;;;;;;;;;4964732;28;20034;-37
2023/06/30 08:07:15;;;;;;;18.70;9.70;;;;;;;;;;4941537;28;20042;-37
2023/06/30 08:09:40;;;;;;;21.40;10.17;;;;;;;;;;4949718;28;20027;-37
2023/06/30 08:12:05;;;;;;;21.33;11.30;;;;;;;;;;4969687;28;20280;-37
2023/06/30 08:14:31;;;;;;;20.92;10.63;;;;;;;;;;4954304;28;20274;-37
2023/06/30 08:16:56;;;;;;;19.63;11.05;;;;;;;;;;4946315;28;20386;-37
2023/06/30 08:19:21;;;;;;;17.53;10.27;;;;;;;;;;4964575;28;20030;-37
2023/06/30 08:21:47;;;;;;;19.95;9.95;;;;;;;;;;4952136;28;20055;-37
2023/06/30 08:24:12;;;;;;;20.87;11.27;;;;;;;;;;4943663;28;20115;-37
2023/06/30 08:26:37;;;;;;;12.70;7.40;;;;;;;;;;4967800;28;20699;-37
2023/06/30 08:29:02;;;;;;;20.57;11.10;;;;;;;;;;4963276;28;20330;-37
2023/06/30 08:31:28;;;;;;;21.57;11.30;;;;;;;;;;4945464;28;20049;-37
2023/06/30 08:33:54;;;;;;;22.05;10.60;;;;;;;;;;4946439;28;20944;-37
2023/06/30 08:36:21;;;;;;;19.80;10.77;;;;;;;;;;4942404;28;20098;-37
2023/06/30 08:38:46;;;;;;;23.38;11.68;;;;;;;;;;4954835;28;20082;-37
2023/06/30 08:41:12;;;;;;;19.57;11.03;;;;;;;;;;4951059;28;20031;-37
2023/06/30 08:43:38;;;;;;;18.92;10.82;;;;;;;;;;4959449;28;20358;-37
2023/06/30 08:46:03;;;;;;;21.20;11.40;;;;;;;;;;4940756;28;20038;-37
2023/06/30 08:48:29;;;;;;;22.98;11.40;;;;;;;;;;4966822;28;20066;-36
2023/06/30 08:50:55;;;;;;;24.35;11.98;;;;;;;;;;4965136;28;20022;-37
2023/06/30 08:53:23;;;;;;;20.92;11.57;;;;;;;;;;4946159;28;20049;-38
2023/06/30 08:55:48;;;;;;;19.90;11.18;;;;;;;;;;4967010;28;20034;-37
2023/06/30 08:58:13;;;;;;;24.02;12.23;;;;;;;;;;4946121;28;20030;-37
2023/06/30 09:00:39;;;;;;;23.63;12.90;;;;;;;;;;4947707;28;20045;-38
2023/06/30 09:03:04;;;;;;;28.20;13.50;;;;;;;;;;4961917;28;20270;-38
2023/06/30 09:05:32;;;;;;;25.65;13.35;;;;;;;;;;4965806;28;20034;-37
2023/06/30 09:07:57;;;;;;;22.13;12.25;;;;;;;;;;4931278;28;20152;-38
2023/06/30 09:10:26;;;;;;;24.73;13.75;;;;;;;;;;4951258;28;20102;-38
2023/06/30 09:12:54;;;;;;;26.33;12.50;;;;;;;;;;4936992;28;20366;-38
2023/06/30 09:15:19;;;;;;;24.55;12.98;;;;;;;;;;4942554;28;20031;-37
2023/06/30 09:17:47;;;;;;;28.33;13.75;;;;;;;;;;4942579;28;20023;-37
2023/06/30 09:20:13;;;;;;;25.30;13.63;;;;;;;;;;4963567;28;20073;-38
2023/06/30 09:22:41;;;;;;;23.80;13.88;;;;;;;;;;4960692;28;20030;-37
2023/06/30 09:25:27;;;;;;;31.58;14.35;;;;;;;;;;4956394;28;20035;-38
2023/06/30 09:27:53;;;;;;;27.25;14.05;;;;;;;;;;4946536;28;20438;-38
2023/06/30 09:30:18;;;;;;;25.08;13.35;;;;;;;;;;4945088;28;20493;-37
2023/06/30 09:32:43;;;;;;;29.05;14.68;;;;;;;;;;4956023;28;20050;-37
2023/06/30 09:35:12;;;;;;;26.02;14.07;;;;;;;;;;4962993;28;20037;-38
2023/06/30 09:37:46;;;;;;;28.83;14.55;;;;;;;;;;4960507;28;20034;-38
2023/06/30 09:40:14;;;;;;;26.52;14.73;;;;;;;;;;4940328;28;20501;-37
2023/06/30 09:42:49;;;;;;;19.27;9.65;;;;;;;;;;4945695;28;20039;-45
2023/06/30 09:45:14;;;;;;;26.55;15.00;;;;;;;;;;4959512;28;20089;-38
2023/06/30 09:47:41;;;;;;;28.52;15.02;;;;;;;;;;4945575;28;20015;-38
2023/06/30 09:50:07;;;;;;;28.75;15.88;;;;;;;;;;4943058;28;20058;-38
2023/06/30 09:52:36;;;;;;;34.92;16.85;;;;;;;;;;4944671;28;20066;-38
2023/06/30 09:55:11;;;;;;;28.90;17.13;;;;;;;;;;4938245;28;20035;-37
2023/06/30 09:57:43;;;;;;;31.10;17.88;;;;;;;;;;4935383;28;20121;-37
2023/06/30 10:00:11;;;;;;;32.30;16.95;;;;;;;;;;4940912;28;20031;-37
2023/06/30 10:02:42;;;;;;;29.55;17.60;;;;;;;;;;4949095;28;20024;-38
2023/06/30 10:05:08;;;;;;;31.55;17.48;;;;;;;;;;4941763;28;20467;-37
2023/06/30 10:07:33;;;;;;;33.50;18.23;;;;;;;;;;4947280;28;20031;-38
2023/06/30 10:10:00;;;;;;;37.35;18.10;;;;;;;;;;4940557;28;20031;-37
2023/06/30 10:12:28;;;;;;;33.20;17.17;;;;;;;;;;4941346;28;20046;-37
2023/06/30 10:15:01;;;;;;;36.38;16.75;;;;;;;;;;4942462;28;20482;-38
2023/06/30 10:17:27;;;;;;;35.33;17.80;;;;;;;;;;4939711;28;20050;-37
2023/06/30 10:19:52;;;;;;;35.15;18.00;;;;;;;;;;4937411;28;20036;-38
2023/06/30 10:22:18;;;;;;;35.08;19.08;;;;;;;;;;4947523;28;20038;-38
2023/06/30 10:24:44;;;;;;;30.48;17.73;;;;;;;;;;4938644;28;20027;-38
2023/06/30 10:27:09;;;;;;;36.97;19.05;;;;;;;;;;4937192;28;20134;-38
2023/06/30 10:29:35;;;;;;;38.05;19.42;;;;;;;;;;4938091;28;20147;-38
2023/06/30 10:32:01;;;;;;;35.22;18.33;;;;;;;;;;4929053;28;20118;-41
2023/06/30 10:34:27;;;;;;;29.13;16.30;;;;;;;;;;4941540;28;20027;-38
2023/06/30 10:36:53;;;;;;;32.60;17.02;;;;;;;;;;4945007;28;20020;-38
2023/06/30 10:39:18;;;;;;;32.67;18.70;;;;;;;;;;4943267;28;20114;-38
2023/06/30 10:41:44;;;;;;;34.03;17.30;;;;;;;;;;4956746;28;20274;-38
2023/06/30 10:44:10;;;;;;;29.92;17.23;;;;;;;;;;4946321;28;20031;-38
2023/06/30 10:46:47;;;;;;;30.43;16.20;;;;;;;;;;4963333;28;20426;-37
2023/06/30 10:49:23;;;;;;;35.28;17.80;;;;;;;;;;4958181;28;20668;-38
2023/06/30 10:51:49;;;;;;;29.52;16.25;;;;;;;;;;4957730;28;20054;-38
2023/06/30 10:54:35;;;;;;;33.65;17.00;;;;;;;;;;4969512;28;20023;-37
2023/06/30 10:57:05;;;;;;;36.08;19.67;;;;;;;;;;4953510;28;20050;-38
2023/06/30 10:59:40;;;;;;;32.60;16.77;;;;;;;;;;4967468;28;20446;-37
2023/06/30 11:02:23;;;;;;;33.97;19.20;;;;;;;;;;4965522;28;20019;-37
2023/06/30 11:04:52;;;;;;;32.72;18.00;;;;;;;;;;4960240;28;20015;-37
2023/06/30 11:07:23;;;;;;;33.97;19.23;;;;;;;;;;4958171;28;20481;-38
2023/06/30 11:09:49;;;;;;;37.50;18.45;;;;;;;;;;4958731;28;20493;-38
2023/06/30 11:12:25;;;;;;;35.43;17.20;;;;;;;;;;4959643;28;20489;-37
2023/06/30 11:14:58;;;;;;;29.05;16.55;;;;;;;;;;4964795;28;20031;-37
2023/06/30 11:17:28;;;;;;;29.60;16.35;;;;;;;;;;4961611;28;20105;-38
2023/06/30 11:20:12;;;;;;;30.05;16.48;;;;;;;;;;4966376;28;20023;-37
2023/06/30 11:22:38;;;;;;;29.02;15.40;;;;;;;;;;4946918;28;20023;-37
2023/06/30 11:25:05;;;;;;;24.30;14.57;;;;;;;;;;4949118;28;20031;-37
2023/06/30 11:27:31;;;;;;;19.38;11.40;;;;;;;;;;4966589;28;20023;-37
2023/06/30 11:29:58;;;;;;;18.35;10.43;;;;;;;;;;4947512;28;20034;-37
2023/06/30 11:32:28;;;;;;;18.83;9.73;;;;;;;;;;4947296;28;20547;-37
2023/06/30 11:34:54;;;;;;;16.90;9.73;;;;;;;;;;4964537;28;20482;-38
2023/06/30 11:37:19;;;;;;;21.05;10.02;;;;;;;;;;4969683;28;20086;-38
2023/06/30 11:39:55;;;;;;;21.13;10.63;;;;;;;;;;4960870;28;20038;-37
2023/06/30 11:42:21;;;;;;;28.50;12.25;;;;;;;;;;4968720;28;20027;-38
2023/06/30 11:44:49;;;;;;;31.25;12.85;;;;;;;;;;4962004;28;20021;-38
2023/06/30 11:47:17;;;;;;;20.45;10.82;;;;;;;;;;4962647;28;20023;-37
2023/06/30 11:49:47;;;;;;;22.20;10.60;;;;;;;;;;4969786;28;20038;-38
2023/06/30 11:52:19;;;;;;;23.60;11.13;;;;;;;;;;4957927;28;20113;-38
2023/06/30 11:54:44;;;;;;;;;;;;;;;;;;4961874;28;20031;-37
2023/06/30 11:57:10;;;;;;;22.37;11.60;;;;;;;;;;4961524;28;19910;-37
2023/06/30 11:59:38;;;;;;;17.65;9.48;;;;;;;;;;4967156;28;20030;-38
2023/06/30 12:02:03;;;;;;;21.17;10.57;;;;;;;;;;4958310;28;20027;-37
2023/06/30 12:04:33;;;;;;;20.67;11.57;;;;;;;;;;4964439;28;20030;-37
2023/06/30 12:07:04;;;;;;;21.77;11.43;;;;;;;;;;4953248;28;20034;-37
2023/06/30 12:09:29;;;;;;;20.63;9.68;;;;;;;;;;4967457;28;20027;-37
2023/06/30 12:11:56;;;;;;;15.10;8.65;;;;;;;;;;4964601;28;20030;-37
2023/06/30 12:14:25;;;;;;;14.90;7.93;;;;;;;;;;4955364;28;20102;-37
2023/06/30 12:16:53;;;;;;;18.70;9.18;;;;;;;;;;4964006;28;20031;-37
2023/06/30 12:19:25;;;;;;;16.20;7.43;;;;;;;;;;4964833;28;20022;-37
2023/06/30 12:22:00;;;;;;;14.48;7.50;;;;;;;;;;4967592;28;20022;-37
2023/06/30 12:24:32;;;;;;;12.27;6.18;;;;;;;;;;4964380;28;20046;-37
2023/06/30 12:27:00;;;;;;;14.88;7.00;;;;;;;;;;4968943;28;20054;-37
2023/06/30 12:29:30;;;;;;;13.55;6.80;;;;;;;;;;4950856;28;20034;-38
2023/06/30 12:31:55;;;;;;;11.70;6.07;;;;;;;;;;4961418;28;20050;-37
2023/06/30 12:34:38;;;;;;;12.48;5.65;;;;;;;;;;4963027;28;20027;-37
2023/06/30 12:37:04;;;;;;;12.43;6.30;;;;;;;;;;4938060;28;20106;-37
2023/06/30 12:39:29;;;;;;;11.68;6.43;;;;;;;;;;4958333;28;20489;-38
2023/06/30 12:41:55;;;;;;;11.93;6.13;;;;;;;;;;4964154;28;20058;-38
2023/06/30 12:44:24;;;;;;;12.85;6.25;;;;;;;;;;4942983;28;20277;-38
2023/06/30 12:46:59;;;;;;;12.80;5.80;;;;;;;;;;4940891;28;20514;-38
2023/06/30 12:49:28;;;;;;;10.98;5.93;;;;;;;;;;4958362;28;20027;-37
2023/06/30 12:51:53;;;;;;;11.75;6.43;;;;;;;;;;4949785;28;20042;-38
2023/06/30 12:54:18;;;;;;;11.73;6.13;;;;;;;;;;4967589;28;20043;-38
2023/06/30 12:56:44;;;;;;;13.37;6.97;;;;;;;;;;4957043;28;20026;-38
2023/06/30 12:59:09;;;;;;;12.20;6.05;;;;;;;;;;4964045;28;20297;-37
2023/06/30 13:01:34;;;;;;;12.03;6.67;;;;;;;;;;4968566;28;20031;-37
2023/06/30 13:03:59;;;;;;;10.23;4.80;;;;;;;;;;4961562;28;20657;-37
2023/06/30 13:06:25;;;;;;;12.10;4.60;;;;;;;;;;4948845;28;20286;-38
2023/06/30 13:08:50;;;;;;;8.93;4.50;;;;;;;;;;4952204;28;20031;-38
2023/06/30 13:11:15;;;;;;;7.50;4.37;;;;;;;;;;4968108;28;20085;-38
2023/06/30 13:13:40;;;;;;;8.17;2.90;;;;;;;;;;4950962;28;20279;-37
2023/06/30 13:16:06;;;;;;;6.13;3.17;;;;;;;;;;4950581;28;20858;-37
2023/06/30 13:18:31;;;;;;;6.93;4.10;;;;;;;;;;4952349;28;20027;-38
2023/06/30 13:20:56;;;;;;;6.25;3.92;;;;;;;;;;4956271;28;20293;-38
2023/06/30 13:23:22;;;;;;;8.93;3.77;;;;;;;;;;4967543;28;20019;-38
2023/06/30 13:25:47;;;;;;;5.80;3.20;;;;;;;;;;4965470;28;20286;-38
2023/06/30 13:28:12;;;;;;;6.00;2.73;;;;;;;;;;4963161;28;20266;-37
2023/06/30 13:30:37;;;;;;;8.20;2.97;;;;;;;;;;4962503;28;20305;-38
2023/06/30 13:33:03;;;;;;;5.72;3.08;;;;;;;;;;4950224;28;20764;-38
2023/06/30 13:35:29;;;;;;;6.23;2.57;;;;;;;;;;4962323;28;20035;-38
2023/06/30 13:37:54;;;;;;;7.63;2.97;;;;;;;;;;4957475;28;20046;-38
2023/06/30 13:40:19;;;;;;;6.27;2.30;;;;;;;;;;4966138;28;20031;-38
2023/06/30 13:42:45;;;;;;;6.00;2.93;;;;;;;;;;4946052;28;20187;-38
2023/06/30 13:45:10;;;;;;;7.38;3.55;;;;;;;;;;4956163;28;20273;-38
2023/06/30 13:47:37;;;;;;;5.72;2.70;;;;;;;;;;4956114;28;20034;-38
2023/06/30 13:50:02;;;;;;;3.83;2.67;;;;;;;;;;4959153;28;20053;-38
2023/06/30 13:52:29;;;;;;;7.83;3.00;;;;;;;;;;4964223;28;20054;-38
2023/06/30 13:54:55;;;;;;;6.15;3.47;;;;;;;;;;4946382;28;20437;-38
2023/06/30 13:57:20;;;;;;;7.93;3.00;;;;;;;;;;4964321;28;20545;-38
2023/06/30 13:59:45;;;;;;;5.73;3.00;;;;;;;;;;4943779;28;20293;-37
2023/06/30 14:02:13;;;;;;;6.83;2.30;;;;;;;;;;4946364;28;20023;-37
2023/06/30 14:04:41;;;;;;;7.05;2.63;;;;;;;;;;4942070;28;20715;-37
2023/06/30 14:07:07;;;;;;;7.78;2.58;;;;;;;;;;4961751;28;20031;-37
2023/06/30 14:09:32;;;;;;;5.85;3.15;;;;;;;;;;4962081;28;20038;-37
2023/06/30 14:11:58;;;;;;;7.83;3.03;;;;;;;;;;4964963;28;20492;-37
2023/06/30 14:14:23;;;;;;;8.07;2.70;;;;;;;;;;4947106;28;20042;-37
2023/06/30 14:16:51;;;;;;;7.07;2.40;;;;;;;;;;4959264;28;20445;-37
2023/06/30 14:19:16;;;;;;;4.97;2.17;;;;;;;;;;4962707;28;20305;-37
2023/06/30 14:21:41;;;;;;;6.17;2.20;;;;;;;;;;4945854;28;20058;-37
2023/06/30 14:24:08;;;;;;;3.77;1.70;;;;;;;;;;4964585;28;20661;-37
2023/06/30 14:26:33;;;;;;;5.10;1.95;;;;;;;;;;4964187;28;21232;-37